createdAt,value
2023-05-24T00:02:20.304Z,99.90
2023-05-24T00:04:49.549Z,99.90
2023-05-24T00:07:16.768Z,99.90
2023-05-24T00:09:44.011Z,99.90
2023-05-24T00:12:11.246Z,99.90
2023-05-24T00:14:38.316Z,99.90
2023-05-24T00:17:05.488Z,99.90
2023-05-24T00:19:32.498Z,99.90
2023-05-24T00:21:59.568Z,99.90
2023-05-24T00:24:26.626Z,99.90
2023-05-24T00:26:53.647Z,99.90
2023-05-24T00:29:20.668Z,99.90
2023-05-24T00:31:47.672Z,99.90
2023-05-24T00:34:14.984Z,99.90
2023-05-24T00:36:42.096Z,99.90
2023-05-24T00:39:09.208Z,99.90
2023-05-24T00:41:36.262Z,99.90
2023-05-24T00:44:03.521Z,99.90
2023-05-24T00:46:35.283Z,99.90
2023-05-24T00:49:02.913Z,99.90
2023-05-24T00:51:32.170Z,99.90
2023-05-24T00:53:59.389Z,99.90
2023-05-24T00:56:28.342Z,99.90
2023-05-24T00:58:56.526Z,99.90
2023-05-24T01:01:26.400Z,99.90
2023-05-24T01:03:54.670Z,99.90
2023-05-24T01:06:23.640Z,99.90
2023-05-24T01:09:20.264Z,99.90
2023-05-24T01:12:32.214Z,99.90
2023-05-24T01:15:24.479Z,99.90
2023-05-24T01:18:11.763Z,99.90
2023-05-24T01:20:41.266Z,99.90
2023-05-24T01:23:42.328Z,99.90
2023-05-24T01:26:39.326Z,99.90
2023-05-24T01:29:07.897Z,99.90
2023-05-24T01:31:36.140Z,99.90
2023-05-24T01:34:03.292Z,99.90
2023-05-24T01:36:30.398Z,99.90
2023-05-24T01:38:57.455Z,99.90
2023-05-24T01:41:57.985Z,99.90
2023-05-24T01:44:31.762Z,99.90
2023-05-24T01:47:12.663Z,99.90
2023-05-24T01:49:48.373Z,99.90
2023-05-24T01:52:18.509Z,99.90
2023-05-24T01:54:50.656Z,99.90
2023-05-24T01:57:20.019Z,99.90
2023-05-24T01:59:47.754Z,99.90
2023-05-24T02:02:15.001Z,99.90
2023-05-24T02:04:42.092Z,99.90
2023-05-24T02:07:09.076Z,99.90
2023-05-24T02:09:36.237Z,99.90
2023-05-24T02:12:03.818Z,99.90
2023-05-24T02:14:31.733Z,99.90
2023-05-24T02:16:59.406Z,99.90
2023-05-24T02:19:26.544Z,99.90
2023-05-24T02:21:53.794Z,99.90
2023-05-24T02:24:20.941Z,99.90
2023-05-24T02:26:47.977Z,99.90
2023-05-24T02:29:15.014Z,99.90
2023-05-24T02:31:42.103Z,99.90
2023-05-24T02:34:09.097Z,99.90
2023-05-24T02:36:36.467Z,99.90
2023-05-24T02:39:04.437Z,99.90
2023-05-24T02:41:31.528Z,99.90
2023-05-24T02:43:58.503Z,99.90
2023-05-24T02:46:25.877Z,99.90
2023-05-24T02:48:53.036Z,99.90
2023-05-24T02:51:20.101Z,99.90
2023-05-24T02:53:47.894Z,99.90
2023-05-24T02:56:17.452Z,99.90
2023-05-24T02:58:45.173Z,99.90
2023-05-24T03:01:12.982Z,99.90
2023-05-24T03:03:40.116Z,99.90
2023-05-24T03:06:07.683Z,99.90
2023-05-24T03:08:35.177Z,99.90
2023-05-24T03:11:02.137Z,99.90
2023-05-24T03:13:29.201Z,99.90
2023-05-24T03:15:56.684Z,99.90
2023-05-24T03:18:23.867Z,99.90
2023-05-24T03:20:51.330Z,99.90
2023-05-24T03:23:18.758Z,99.90
2023-05-24T03:25:45.826Z,99.90
2023-05-24T03:28:14.717Z,99.90
2023-05-24T03:30:41.992Z,99.90
2023-05-24T03:33:09.213Z,99.90
2023-05-24T03:35:36.430Z,99.90
2023-05-24T03:38:03.400Z,99.90
2023-05-24T03:40:32.676Z,99.90
2023-05-24T03:43:00.769Z,99.70
2023-05-24T03:45:38.538Z,97.30
2023-05-24T03:48:06.786Z,94.40
2023-05-24T03:50:33.962Z,93.80
2023-05-24T03:53:01.040Z,95.10
2023-05-24T03:55:28.027Z,93.40
2023-05-24T03:57:54.993Z,93.40
2023-05-24T04:00:22.157Z,93.90
2023-05-24T04:02:49.352Z,93.40
2023-05-24T04:05:16.514Z,92.90
2023-05-24T04:07:46.619Z,92.70
2023-05-24T04:10:13.796Z,91.70
2023-05-24T04:12:41.843Z,91.20
2023-05-24T04:15:09.388Z,89.40
2023-05-24T04:17:36.545Z,90.90
2023-05-24T04:20:05.914Z,90.00
2023-05-24T04:22:33.101Z,89.60
2023-05-24T04:25:00.334Z,90.20
2023-05-24T04:27:28.056Z,90.10
2023-05-24T04:29:55.287Z,90.10
2023-05-24T04:32:23.702Z,84.50
2023-05-24T04:34:52.727Z,84.10
2023-05-24T04:37:19.774Z,83.50
2023-05-24T04:39:46.911Z,84.00
2023-05-24T04:42:14.039Z,82.20
2023-05-24T04:44:41.272Z,82.50
2023-05-24T04:47:09.060Z,84.40
2023-05-24T04:49:36.214Z,85.00
2023-05-24T04:52:03.274Z,84.70
2023-05-24T04:54:30.418Z,81.40
2023-05-24T04:56:57.433Z,83.80
2023-05-24T04:59:25.067Z,80.00
2023-05-24T05:01:52.119Z,80.30
2023-05-24T05:04:19.212Z,79.60
2023-05-24T05:06:46.692Z,78.70
2023-05-24T05:09:14.915Z,78.70
2023-05-24T05:11:42.077Z,77.00
2023-05-24T05:14:09.869Z,77.60
2023-05-24T05:16:37.354Z,75.30
2023-05-24T05:19:04.962Z,73.50
2023-05-24T05:21:35.475Z,71.00
2023-05-24T05:24:03.653Z,71.00
2023-05-24T05:26:30.769Z,74.40
2023-05-24T05:28:58.456Z,72.70
2023-05-24T05:31:25.822Z,70.20
2023-05-24T05:33:52.934Z,70.20
2023-05-24T05:36:20.006Z,67.90
2023-05-24T05:38:46.981Z,66.60
2023-05-24T05:41:14.003Z,68.30
2023-05-24T05:43:41.124Z,68.60
2023-05-24T05:46:08.309Z,66.30
2023-05-24T05:48:35.596Z,65.10
2023-05-24T05:51:02.649Z,63.60
2023-05-24T05:53:29.644Z,62.80
2023-05-24T05:55:56.736Z,63.70
2023-05-24T05:58:23.787Z,63.90
2023-05-24T06:00:51.164Z,64.60
2023-05-24T06:03:18.325Z,64.20
2023-05-24T06:05:45.653Z,66.80
2023-05-24T06:08:12.752Z,60.60
2023-05-24T06:10:39.723Z,61.30
2023-05-24T06:13:06.725Z,60.50
2023-05-24T06:15:34.558Z,61.70
2023-05-24T06:18:02.480Z,61.70
2023-05-24T06:20:29.718Z,59.00
2023-05-24T06:22:57.471Z,58.80
2023-05-24T06:25:24.626Z,57.50
2023-05-24T06:27:51.932Z,58.20
2023-05-24T06:30:19.307Z,56.80
2023-05-24T06:32:46.425Z,55.50
2023-05-24T06:35:13.849Z,54.60
2023-05-24T06:37:40.992Z,56.20
2023-05-24T06:40:09.813Z,56.90
2023-05-24T06:42:37.319Z,57.60
2023-05-24T06:45:04.710Z,58.40
2023-05-24T06:47:32.142Z,58.10
2023-05-24T06:49:59.220Z,61.10
2023-05-24T06:52:26.262Z,58.80
2023-05-24T06:54:53.535Z,56.60
2023-05-24T06:57:20.556Z,57.70
2023-05-24T06:59:47.602Z,54.30
2023-05-24T07:02:14.606Z,55.60
2023-05-24T07:04:42.590Z,56.00
2023-05-24T07:07:12.778Z,54.30
2023-05-24T07:09:42.343Z,54.00
2023-05-24T07:12:09.561Z,53.00
2023-05-24T07:14:36.719Z,54.10
2023-05-24T07:17:04.677Z,53.40
2023-05-24T07:19:33.661Z,54.90
2023-05-24T07:22:00.720Z,52.90
2023-05-24T07:24:27.808Z,53.50
2023-05-24T07:26:56.807Z,53.50
2023-05-24T07:29:24.381Z,53.00
2023-05-24T07:31:51.562Z,54.40
2023-05-24T07:34:21.322Z,51.50
2023-05-24T07:36:49.643Z,51.70
2023-05-24T07:39:23.308Z,53.00
2023-05-24T07:41:50.995Z,52.40
2023-05-24T07:44:19.070Z,51.60
2023-05-24T07:46:46.496Z,51.20
2023-05-24T07:49:13.579Z,52.40
2023-05-24T07:51:40.633Z,51.70
2023-05-24T07:54:07.669Z,52.90
2023-05-24T07:56:34.621Z,54.20
2023-05-24T07:59:04.959Z,53.10
2023-05-24T08:01:32.376Z,49.60
2023-05-24T08:03:59.532Z,49.50
2023-05-24T08:06:26.664Z,51.50
2023-05-24T08:08:53.817Z,54.10
2023-05-24T08:11:20.965Z,49.70
2023-05-24T08:13:48.144Z,55.50
2023-05-24T08:16:15.308Z,50.10
2023-05-24T08:18:42.437Z,48.30
2023-05-24T08:21:09.557Z,50.60
2023-05-24T08:23:36.752Z,52.60
2023-05-24T08:26:03.856Z,55.00
2023-05-24T08:28:30.872Z,51.70
2023-05-24T08:30:58.775Z,50.30
2023-05-24T08:33:25.943Z,52.60
2023-05-24T08:35:52.990Z,51.90
2023-05-24T08:38:20.022Z,54.60
2023-05-24T08:40:48.318Z,54.00
2023-05-24T08:43:15.775Z,52.00
2023-05-24T08:45:44.544Z,52.00
2023-05-24T08:48:14.035Z,53.50
2023-05-24T08:50:43.227Z,51.70
2023-05-24T08:53:11.671Z,53.20
2023-05-24T08:55:39.195Z,56.40
2023-05-24T08:58:06.885Z,55.70
2023-05-24T09:00:33.891Z,55.70
2023-05-24T09:03:02.880Z,54.30
2023-05-24T09:05:30.822Z,54.90
2023-05-24T09:08:01.049Z,56.50
2023-05-24T09:10:49.371Z,61.30
2023-05-24T09:13:20.061Z,56.00
2023-05-24T09:15:47.376Z,56.50
2023-05-24T09:18:14.494Z,55.00
2023-05-24T09:20:42.293Z,55.20
2023-05-24T09:23:25.254Z,54.90
2023-05-24T09:25:52.543Z,54.70
2023-05-24T09:28:21.304Z,53.40
2023-05-24T09:31:06.254Z,52.80
2023-05-24T09:33:35.486Z,52.60
2023-05-24T09:36:04.617Z,56.80
2023-05-24T09:38:31.772Z,54.20
2023-05-24T09:41:06.841Z,52.70
2023-05-24T09:43:35.204Z,53.80
2023-05-24T09:46:05.813Z,53.00
2023-05-24T09:48:32.819Z,51.70
2023-05-24T09:51:05.233Z,54.90
2023-05-24T09:53:35.856Z,52.50
2023-05-24T09:56:07.113Z,53.60
2023-05-24T09:58:34.247Z,53.20
2023-05-24T10:01:08.901Z,53.60
2023-05-24T10:03:37.904Z,54.60
2023-05-24T10:06:08.056Z,51.70
2023-05-24T10:08:36.676Z,52.70
2023-05-24T10:11:07.255Z,52.80
2023-05-24T10:13:36.318Z,53.70
2023-05-24T10:16:04.149Z,53.40
2023-05-24T10:18:32.539Z,52.10
2023-05-24T10:21:01.950Z,50.70
2023-05-24T10:23:32.775Z,50.40
2023-05-24T10:26:17.859Z,51.50
2023-05-24T10:28:55.963Z,53.20
2023-05-24T10:31:30.176Z,51.10
2023-05-24T10:34:07.079Z,52.80
2023-05-24T10:36:37.091Z,51.90
2023-05-24T10:39:05.126Z,52.40
2023-05-24T10:41:40.963Z,53.00
2023-05-24T10:44:18.310Z,52.80
2023-05-24T10:47:09.130Z,53.50
2023-05-24T10:49:37.244Z,54.10
2023-05-24T10:52:13.561Z,56.50
2023-05-24T10:54:52.469Z,54.70
2023-05-24T10:57:29.033Z,53.60
2023-05-24T10:59:57.477Z,55.30
2023-05-24T11:02:28.415Z,55.20
2023-05-24T11:04:56.627Z,55.20
2023-05-24T11:07:24.954Z,54.10
2023-05-24T11:09:58.229Z,53.00
2023-05-24T11:12:34.679Z,53.10
2023-05-24T11:15:03.688Z,52.80
2023-05-24T11:17:30.717Z,53.30
2023-05-24T11:19:57.917Z,53.10
2023-05-24T11:22:27.019Z,54.00
2023-05-24T11:24:54.249Z,52.70
2023-05-24T11:27:21.852Z,52.60
2023-05-24T11:29:49.224Z,52.80
2023-05-24T11:32:18.526Z,52.60
2023-05-24T11:34:47.479Z,53.40
2023-05-24T11:37:17.601Z,54.10
2023-05-24T11:39:52.039Z,53.10
2023-05-24T11:42:19.690Z,51.70
2023-05-24T11:44:49.926Z,51.60
2023-05-24T11:47:32.365Z,50.50
2023-05-24T11:49:59.315Z,50.90
2023-05-24T11:52:26.663Z,51.00
2023-05-24T11:54:55.130Z,52.70
2023-05-24T11:57:36.755Z,52.90
2023-05-24T12:00:06.404Z,51.00
2023-05-24T12:02:33.646Z,50.40
2023-05-24T12:05:11.752Z,50.40
2023-05-24T12:07:39.016Z,49.80
2023-05-24T12:10:07.032Z,48.90
2023-05-24T12:12:45.286Z,49.30
2023-05-24T12:15:14.985Z,48.90
2023-05-24T12:17:42.176Z,48.10
2023-05-24T12:20:12.369Z,48.40
2023-05-24T12:22:39.412Z,49.00
2023-05-24T12:25:07.267Z,50.00
2023-05-24T12:27:35.611Z,49.50
2023-05-24T12:30:10.226Z,46.60
2023-05-24T12:32:37.305Z,48.00
2023-05-24T12:35:04.824Z,47.90
2023-05-24T12:37:32.463Z,47.50
2023-05-24T12:40:01.600Z,47.40
2023-05-24T12:42:29.411Z,49.60
2023-05-24T12:44:56.651Z,49.00
2023-05-24T12:47:35.659Z,47.20
2023-05-24T12:50:02.887Z,48.80
2023-05-24T12:52:30.112Z,47.70
2023-05-24T12:54:57.177Z,46.70
2023-05-24T12:57:25.678Z,46.90
2023-05-24T12:59:52.696Z,48.60
2023-05-24T13:02:20.142Z,47.50
2023-05-24T13:04:47.741Z,47.20
2023-05-24T13:07:15.051Z,47.80
2023-05-24T13:09:42.057Z,48.30
2023-05-24T13:12:09.629Z,48.60
2023-05-24T13:14:36.990Z,51.30
2023-05-24T13:17:05.010Z,51.20
2023-05-24T13:19:32.042Z,51.20
2023-05-24T13:21:58.983Z,51.60
2023-05-24T13:24:26.064Z,52.10
2023-05-24T13:26:54.850Z,50.80
2023-05-24T13:29:36.632Z,51.40
2023-05-24T13:32:09.627Z,52.60
2023-05-24T13:34:37.105Z,53.40
2023-05-24T13:37:04.668Z,53.20
2023-05-24T13:39:31.797Z,51.30
2023-05-24T13:42:01.028Z,48.60
2023-05-24T13:44:28.329Z,50.00
2023-05-24T13:46:56.649Z,50.70
2023-05-24T13:49:24.046Z,51.80
2023-05-24T13:51:53.868Z,50.40
2023-05-24T13:54:22.882Z,49.80
2023-05-24T13:56:50.076Z,49.50
2023-05-24T13:59:17.820Z,48.90
2023-05-24T14:01:45.834Z,47.80
2023-05-24T14:04:12.907Z,48.90
2023-05-24T14:06:39.910Z,49.10
2023-05-24T14:09:08.449Z,52.60
2023-05-24T14:11:36.358Z,48.40
2023-05-24T14:16:33.699Z,47.70
2023-05-24T14:19:00.873Z,46.20
2023-05-24T14:21:28.024Z,47.80
2023-05-24T14:23:55.287Z,48.50
2023-05-24T14:26:23.806Z,48.80
2023-05-24T14:28:53.640Z,49.00
2023-05-24T14:31:22.907Z,47.90
2023-05-24T14:33:49.982Z,49.00
2023-05-24T14:36:16.982Z,49.70
2023-05-24T14:38:43.942Z,50.00
2023-05-24T14:41:11.268Z,48.80
2023-05-24T14:43:38.278Z,50.20
2023-05-24T14:46:05.576Z,48.70
2023-05-24T14:48:32.568Z,49.80
2023-05-24T14:50:59.544Z,48.20
2023-05-24T14:53:29.411Z,48.50
2023-05-24T14:55:56.378Z,48.60
2023-05-24T14:58:23.389Z,48.40
2023-05-24T15:00:51.258Z,48.10
2023-05-24T15:03:18.759Z,47.90
2023-05-24T15:05:46.475Z,49.50
2023-05-24T15:08:13.772Z,48.70
2023-05-24T15:10:41.208Z,49.40
2023-05-24T15:13:08.450Z,50.20
2023-05-24T15:15:35.950Z,51.20
2023-05-24T15:18:03.396Z,52.40
2023-05-24T15:20:30.500Z,49.50
2023-05-24T15:22:57.586Z,49.40
2023-05-24T15:25:24.547Z,50.60
2023-05-24T15:27:52.142Z,51.20
2023-05-24T15:30:19.973Z,48.60
2023-05-24T15:32:47.695Z,49.90
2023-05-24T15:35:15.275Z,48.90
2023-05-24T15:37:43.256Z,49.00
2023-05-24T15:40:11.480Z,49.70
2023-05-24T15:42:38.514Z,49.90
2023-05-24T15:45:05.928Z,49.30
2023-05-24T15:47:38.132Z,49.50
2023-05-24T15:50:06.937Z,50.40
2023-05-24T15:52:34.593Z,49.70
2023-05-24T15:55:01.806Z,48.70
2023-05-24T15:57:29.016Z,48.90
2023-05-24T15:59:55.999Z,49.40
2023-05-24T16:02:23.237Z,48.90
2023-05-24T16:04:50.835Z,48.70
2023-05-24T16:07:18.738Z,49.50
2023-05-24T16:09:50.814Z,49.50
2023-05-24T16:12:18.539Z,49.60
2023-05-24T16:14:45.607Z,49.90
2023-05-24T16:17:12.990Z,49.30
2023-05-24T16:19:40.163Z,49.20
2023-05-24T16:22:08.143Z,50.30
2023-05-24T16:24:35.445Z,49.70
2023-05-24T16:27:02.564Z,49.20
2023-05-24T16:29:29.612Z,49.80
2023-05-24T16:31:56.663Z,48.90
2023-05-24T16:34:24.681Z,49.90
2023-05-24T16:36:52.261Z,50.00
2023-05-24T16:39:19.408Z,50.00
2023-05-24T16:41:46.400Z,49.60
2023-05-24T16:44:17.818Z,50.00
2023-05-24T16:46:45.743Z,50.30
2023-05-24T16:49:13.382Z,50.00
2023-05-24T16:51:40.623Z,50.10
2023-05-24T16:54:09.021Z,50.70
2023-05-24T16:56:38.169Z,50.80
2023-05-24T16:59:05.539Z,50.50
2023-05-24T17:01:32.649Z,50.50
2023-05-24T17:03:59.989Z,50.80
2023-05-24T17:06:27.209Z,50.50
2023-05-24T17:08:54.238Z,50.70
2023-05-24T17:11:23.161Z,49.70
2023-05-24T17:13:51.619Z,50.30
2023-05-24T17:16:18.942Z,50.20
2023-05-24T17:18:46.200Z,49.70
2023-05-24T17:21:13.180Z,50.40
2023-05-24T17:23:40.252Z,50.70
2023-05-24T17:26:10.166Z,51.30
2023-05-24T17:28:37.290Z,51.10
2023-05-24T17:31:04.360Z,51.70
2023-05-24T17:33:32.399Z,53.00
2023-05-24T17:36:06.472Z,55.40
2023-05-24T17:38:34.034Z,54.60
2023-05-24T17:41:01.037Z,56.00
2023-05-24T17:43:34.405Z,57.20
2023-05-24T17:46:08.732Z,57.40
2023-05-24T17:48:36.844Z,58.30
2023-05-24T17:51:06.266Z,59.10
2023-05-24T17:53:35.286Z,58.90
2023-05-24T17:56:03.680Z,58.30
2023-05-24T17:58:32.977Z,59.50
2023-05-24T18:01:00.114Z,60.60
2023-05-24T18:03:27.189Z,60.40
2023-05-24T18:05:54.164Z,60.70
2023-05-24T18:08:21.525Z,62.30
2023-05-24T18:10:48.615Z,62.20
2023-05-24T18:13:15.665Z,63.40
2023-05-24T18:15:43.032Z,64.20
2023-05-24T18:18:10.507Z,64.60
2023-05-24T18:20:37.689Z,65.20
2023-05-24T18:23:04.805Z,65.20
2023-05-24T18:25:31.829Z,65.90
2023-05-24T18:27:59.082Z,66.50
2023-05-24T18:30:26.312Z,67.60
2023-05-24T18:33:05.396Z,70.10
2023-05-24T18:35:34.384Z,71.40
2023-05-24T18:38:01.350Z,71.90
2023-05-24T18:40:28.328Z,71.60
2023-05-24T18:42:55.320Z,71.30
2023-05-24T18:45:22.942Z,71.40
2023-05-24T18:47:50.086Z,72.70
2023-05-24T18:50:17.226Z,73.00
2023-05-24T18:52:44.226Z,73.60
2023-05-24T18:55:11.452Z,74.40
2023-05-24T18:57:38.931Z,75.20
2023-05-24T19:00:07.651Z,75.80
2023-05-24T19:02:39.203Z,76.80
2023-05-24T19:05:07.772Z,75.90
2023-05-24T19:07:35.783Z,76.30
2023-05-24T19:10:03.597Z,76.10
2023-05-24T19:12:30.844Z,76.00
2023-05-24T19:14:58.021Z,76.60
2023-05-24T19:17:25.552Z,81.80
2023-05-24T19:19:52.956Z,85.50
2023-05-24T19:22:21.304Z,89.10
2023-05-24T19:24:48.325Z,91.70
2023-05-24T19:27:15.465Z,92.90
2023-05-24T19:29:42.504Z,93.70
2023-05-24T19:32:11.690Z,94.50
2023-05-24T19:34:42.329Z,95.80
2023-05-24T19:37:09.891Z,97.90
2023-05-24T19:39:37.749Z,99.90
2023-05-24T19:42:05.061Z,99.90
2023-05-24T19:44:32.061Z,99.90
2023-05-24T19:46:59.052Z,99.90
2023-05-24T19:49:26.215Z,99.90
2023-05-24T19:51:53.361Z,99.90
2023-05-24T19:54:21.201Z,99.90
2023-05-24T19:56:50.945Z,99.90
2023-05-24T19:59:19.029Z,99.90
2023-05-24T20:01:46.219Z,99.90
2023-05-24T20:04:13.726Z,99.90
2023-05-24T20:06:41.254Z,99.90
2023-05-24T20:09:08.821Z,99.90
2023-05-24T20:11:36.181Z,99.90
2023-05-24T20:14:03.634Z,99.90
2023-05-24T20:16:31.570Z,99.90
2023-05-24T20:18:58.768Z,99.90
2023-05-24T20:21:26.006Z,99.90
2023-05-24T20:23:58.172Z,99.90
2023-05-24T20:26:26.631Z,99.90
2023-05-24T20:28:53.846Z,99.90
2023-05-24T20:31:21.083Z,99.90
2023-05-24T20:33:49.891Z,99.90
2023-05-24T20:36:17.172Z,99.90
2023-05-24T20:38:44.234Z,99.90
2023-05-24T20:41:11.305Z,99.90
2023-05-24T20:43:38.525Z,99.90
2023-05-24T20:46:05.661Z,99.90
2023-05-24T20:48:32.850Z,99.90
2023-05-24T20:51:00.181Z,99.90
2023-05-24T20:53:27.571Z,99.90
2023-05-24T20:55:56.651Z,99.90
2023-05-24T20:58:23.768Z,99.90
2023-05-24T21:00:51.516Z,99.90
2023-05-24T21:03:18.931Z,99.90
2023-05-24T21:05:46.288Z,99.90
2023-05-24T21:08:13.355Z,99.90
2023-05-24T21:10:40.630Z,99.90
2023-05-24T21:13:07.687Z,99.90
2023-05-24T21:15:35.729Z,99.90
2023-05-24T21:18:03.946Z,99.90
2023-05-24T21:20:31.257Z,99.90
2023-05-24T21:22:58.449Z,99.90
2023-05-24T21:25:25.465Z,99.90
2023-05-24T21:27:52.561Z,99.90
2023-05-24T21:30:19.723Z,99.90
2023-05-24T21:32:46.920Z,99.90
2023-05-24T21:35:14.029Z,99.90
2023-05-24T21:37:41.037Z,99.90
2023-05-24T21:40:08.461Z,99.90
2023-05-24T21:42:36.095Z,99.90
2023-05-24T21:45:04.758Z,99.90
2023-05-24T21:47:33.218Z,99.90
2023-05-24T21:50:03.790Z,99.90
2023-05-24T21:52:30.935Z,99.90
2023-05-24T21:54:57.948Z,99.90
2023-05-24T21:57:26.533Z,99.90
2023-05-24T21:59:53.738Z,99.90
2023-05-24T22:02:21.781Z,99.90
2023-05-24T22:04:50.538Z,99.90
2023-05-24T22:07:17.737Z,99.90
2023-05-24T22:09:45.089Z,99.90
2023-05-24T22:12:12.113Z,99.90
2023-05-24T22:14:39.182Z,99.90
2023-05-24T22:17:06.190Z,99.90
2023-05-24T22:22:03.231Z,99.90
2023-05-24T22:24:30.230Z,99.90
2023-05-24T22:26:57.190Z,99.90
2023-05-24T22:29:24.160Z,99.90
2023-05-24T22:31:51.138Z,99.90
2023-05-24T22:34:27.453Z,99.90
2023-05-24T22:36:55.657Z,99.90
2023-05-24T22:39:22.846Z,99.90
2023-05-24T22:41:51.239Z,99.90
2023-05-24T22:44:18.277Z,99.90
2023-05-24T22:46:48.434Z,99.90
2023-05-24T22:49:19.642Z,99.90
2023-05-24T22:51:48.526Z,99.90
2023-05-24T22:54:15.860Z,99.90
2023-05-24T22:56:43.864Z,99.90
2023-05-24T22:59:11.374Z,99.90
2023-05-24T23:01:38.540Z,99.90
2023-05-24T23:04:19.551Z,99.90
2023-05-24T23:06:49.294Z,99.90
2023-05-24T23:09:17.766Z,99.90
2023-05-24T23:11:46.207Z,99.90
2023-05-24T23:14:14.390Z,99.90
2023-05-24T23:16:45.557Z,99.90
2023-05-24T23:19:18.697Z,99.90
2023-05-24T23:21:46.226Z,99.90
2023-05-24T23:24:15.951Z,99.90
2023-05-24T23:26:43.859Z,99.90
2023-05-24T23:29:11.053Z,99.90
2023-05-24T23:31:38.249Z,99.90
2023-05-24T23:34:05.835Z,99.90
2023-05-24T23:36:33.029Z,99.90
2023-05-24T23:39:00.050Z,99.90
2023-05-24T23:41:27.362Z,99.90
2023-05-24T23:43:54.456Z,99.90
2023-05-24T23:46:21.638Z,99.90
2023-05-24T23:48:48.958Z,99.90
2023-05-24T23:51:15.993Z,99.90
2023-05-24T23:53:42.954Z,99.90
2023-05-24T23:56:09.989Z,99.90
2023-05-24T23:58:37.856Z,99.90
